AVA9453 SVMC-SVMI
Flight info
| Callsign | AVA9453 |
|---|---|
| Flight time | 1h 5m |
| Altitude | 23000 |
| Route | ASIBA1 MAU A552 LIXIL DCT PBL DCT ALDAK ALDAK1 |
| Aircraft | A320/M-SDE3FGHIRWY/LB1 |
Departure
| Time | 2026-04-27 22:00 |
|---|---|
| Airport | La Chinita International Airport (SVMC) |
Arrival
| Time | 2026-04-27 23:06 |
|---|---|
| Airport | Maiquetía Simón Bolívar International Airport (SVMI) |
| Time | Latitude | Longitude | Altitude | Speed | Heading |
|---|---|---|---|---|---|
| 2026-04-27 21:11 | 10.55662 | -71.72437 | 210 ft | 0 kts | 115° |
| 2026-04-27 21:49 | 10.55662 | -71.72438 | 209 ft | 1 kts | 115° |
| 2026-04-27 21:49 | 10.55672 | -71.72460 | 211 ft | 4 kts | 115° |
| 2026-04-27 21:50 | 10.55682 | -71.72480 | 212 ft | 4 kts | 119° |
| 2026-04-27 21:50 | 10.55697 | -71.72502 | 209 ft | 4 kts | 133° |
| 2026-04-27 21:50 | 10.55717 | -71.72519 | 209 ft | 3 kts | 156° |
| 2026-04-27 21:50 | 10.55724 | -71.72522 | 209 ft | 0 kts | 157° |
| 2026-04-27 21:56 | 10.55660 | -71.72548 | 209 ft | 14 kts | 245° |
| 2026-04-27 21:56 | 10.55662 | -71.72581 | 209 ft | 1 kts | 238° |
| 2026-04-27 21:57 | 10.55680 | -71.72642 | 210 ft | 16 kts | 294° |
| 2026-04-27 21:57 | 10.55682 | -71.72745 | 211 ft | 16 kts | 218° |
| 2026-04-27 21:57 | 10.55550 | -71.72805 | 209 ft | 23 kts | 203° |
| 2026-04-27 21:57 | 10.55395 | -71.72870 | 208 ft | 25 kts | 202° |
| 2026-04-27 21:58 | 10.55227 | -71.72939 | 212 ft | 27 kts | 202° |
| 2026-04-27 21:58 | 10.55050 | -71.73012 | 213 ft | 28 kts | 203° |
| 2026-04-27 21:58 | 10.54867 | -71.73091 | 217 ft | 27 kts | 203° |
| 2026-04-27 21:58 | 10.54705 | -71.73172 | 210 ft | 26 kts | 216° |
| 2026-04-27 21:59 | 10.54596 | -71.73287 | 219 ft | 15 kts | 227° |
| 2026-04-27 21:59 | 10.54585 | -71.73368 | 222 ft | 12 kts | 294° |
| 2026-04-27 21:59 | 10.54646 | -71.73389 | 220 ft | 9 kts | 19° |
| 2026-04-27 21:59 | 10.54721 | -71.73359 | 217 ft | 18 kts | 22° |
| 2026-04-27 22:00 | 10.55069 | -71.73211 | 213 ft | 98 kts | 22° |
| 2026-04-27 22:00 | 10.55940 | -71.72844 | 280 ft | 164 kts | 22° |
| 2026-04-27 22:00 | 10.57022 | -71.72398 | 1100 ft | 169 kts | 23° |
| 2026-04-27 22:00 | 10.58112 | -71.71936 | 1827 ft | 175 kts | 22° |
| 2026-04-27 22:01 | 10.59297 | -71.71408 | 2103 ft | 197 kts | 32° |
| 2026-04-27 22:01 | 10.60235 | -71.70315 | 2409 ft | 220 kts | 68° |
| 2026-04-27 22:01 | 10.60546 | -71.68700 | 2764 ft | 246 kts | 82° |
| 2026-04-27 22:01 | 10.60760 | -71.66907 | 3362 ft | 262 kts | 82° |
| 2026-04-27 22:02 | 10.60983 | -71.65060 | 4294 ft | 264 kts | 83° |
| 2026-04-27 22:02 | 10.61215 | -71.63205 | 5201 ft | 266 kts | 83° |
| 2026-04-27 22:02 | 10.61454 | -71.61329 | 6111 ft | 269 kts | 83° |
| 2026-04-27 22:02 | 10.61698 | -71.59421 | 6626 ft | 273 kts | 83° |
| 2026-04-27 22:03 | 10.61945 | -71.57506 | 6825 ft | 273 kts | 83° |
| 2026-04-27 22:03 | 10.62192 | -71.55590 | 6863 ft | 273 kts | 83° |
| 2026-04-27 22:03 | 10.62438 | -71.53676 | 6876 ft | 273 kts | 83° |
| 2026-04-27 22:03 | 10.62685 | -71.51761 | 6880 ft | 274 kts | 83° |
| 2026-04-27 22:04 | 10.62937 | -71.49817 | 7450 ft | 278 kts | 83° |
| 2026-04-27 22:04 | 10.63194 | -71.47868 | 8364 ft | 279 kts | 83° |
| 2026-04-27 22:04 | 10.63451 | -71.45894 | 9174 ft | 283 kts | 83° |
| 2026-04-27 22:04 | 10.63708 | -71.43897 | 9947 ft | 287 kts | 83° |
| 2026-04-27 22:05 | 10.63975 | -71.41818 | 10303 ft | 308 kts | 83° |
| 2026-04-27 22:05 | 10.64262 | -71.39591 | 10633 ft | 326 kts | 83° |
| 2026-04-27 22:05 | 10.64559 | -71.37281 | 11248 ft | 332 kts | 83° |
| 2026-04-27 22:05 | 10.64855 | -71.34965 | 11911 ft | 337 kts | 83° |
| 2026-04-27 22:06 | 10.65160 | -71.32585 | 12586 ft | 342 kts | 83° |
| 2026-04-27 22:06 | 10.65473 | -71.30141 | 13275 ft | 346 kts | 83° |
| 2026-04-27 22:06 | 10.65789 | -71.27697 | 13903 ft | 351 kts | 83° |
| 2026-04-27 22:06 | 10.66110 | -71.25227 | 14483 ft | 355 kts | 83° |
| 2026-04-27 22:07 | 10.66434 | -71.22734 | 15051 ft | 358 kts | 83° |
| 2026-04-27 22:07 | 10.66763 | -71.20205 | 15625 ft | 362 kts | 83° |
| 2026-04-27 22:07 | 10.67092 | -71.17657 | 16190 ft | 365 kts | 83° |
| 2026-04-27 22:07 | 10.67420 | -71.15115 | 16738 ft | 369 kts | 83° |
| 2026-04-27 22:08 | 10.67751 | -71.12524 | 17293 ft | 373 kts | 84° |
| 2026-04-27 22:08 | 10.68087 | -71.09895 | 17853 ft | 377 kts | 83° |
| 2026-04-27 22:08 | 10.68427 | -71.07240 | 18352 ft | 381 kts | 84° |
| 2026-04-27 22:08 | 10.68736 | -71.04557 | 18815 ft | 383 kts | 88° |
| 2026-04-27 22:09 | 10.68679 | -71.01845 | 19275 ft | 385 kts | 95° |
| 2026-04-27 22:09 | 10.68506 | -70.99117 | 19763 ft | 388 kts | 95° |
| 2026-04-27 22:09 | 10.68336 | -70.96369 | 20235 ft | 391 kts | 95° |
| 2026-04-27 22:09 | 10.68167 | -70.93597 | 20708 ft | 394 kts | 95° |
| 2026-04-27 22:10 | 10.67996 | -70.90810 | 21165 ft | 397 kts | 95° |
| 2026-04-27 22:10 | 10.67881 | -70.88948 | 21469 ft | 399 kts | 95° |
| 2026-04-27 22:10 | 10.67652 | -70.85168 | 22066 ft | 403 kts | 95° |
| 2026-04-27 22:10 | 10.67477 | -70.82314 | 22505 ft | 406 kts | 95° |
| 2026-04-27 22:11 | 10.67301 | -70.79440 | 22832 ft | 409 kts | 95° |
| 2026-04-27 22:11 | 10.67128 | -70.76581 | 22902 ft | 399 kts | 95° |
| 2026-04-27 22:11 | 10.66960 | -70.73800 | 22911 ft | 390 kts | 95° |
| 2026-04-27 22:11 | 10.66793 | -70.71061 | 22916 ft | 387 kts | 95° |
| 2026-04-27 22:12 | 10.66623 | -70.68337 | 22915 ft | 386 kts | 95° |
| 2026-04-27 22:12 | 10.66453 | -70.65612 | 22914 ft | 386 kts | 95° |
| 2026-04-27 22:12 | 10.66282 | -70.62890 | 22914 ft | 386 kts | 95° |
| 2026-04-27 22:12 | 10.66114 | -70.60170 | 22917 ft | 386 kts | 95° |
| 2026-04-27 22:13 | 10.65946 | -70.57449 | 22921 ft | 386 kts | 95° |
| 2026-04-27 22:13 | 10.65778 | -70.54728 | 22922 ft | 386 kts | 95° |
| 2026-04-27 22:13 | 10.65611 | -70.52009 | 22922 ft | 386 kts | 95° |
| 2026-04-27 22:13 | 10.65442 | -70.49296 | 22919 ft | 386 kts | 95° |
| 2026-04-27 22:14 | 10.65272 | -70.46575 | 22918 ft | 385 kts | 95° |
| 2026-04-27 22:14 | 10.65102 | -70.43856 | 22918 ft | 385 kts | 95° |
| 2026-04-27 22:14 | 10.64931 | -70.41133 | 22917 ft | 385 kts | 96° |
| 2026-04-27 22:14 | 10.64758 | -70.38420 | 22917 ft | 385 kts | 96° |
| 2026-04-27 22:15 | 10.64581 | -70.35713 | 22913 ft | 385 kts | 96° |
| 2026-04-27 22:15 | 10.64400 | -70.32999 | 22916 ft | 385 kts | 96° |
| 2026-04-27 22:15 | 10.64218 | -70.30287 | 22910 ft | 384 kts | 95° |
| 2026-04-27 22:15 | 10.64039 | -70.27575 | 22911 ft | 385 kts | 96° |
| 2026-04-27 22:16 | 10.63867 | -70.24898 | 22911 ft | 385 kts | 95° |
| 2026-04-27 22:16 | 10.63691 | -70.22144 | 22910 ft | 384 kts | 95° |
| 2026-04-27 22:16 | 10.63519 | -70.19472 | 22911 ft | 384 kts | 96° |
| 2026-04-27 22:16 | 10.63341 | -70.16761 | 22911 ft | 384 kts | 95° |
| 2026-04-27 22:17 | 10.63160 | -70.14014 | 22908 ft | 384 kts | 96° |
| 2026-04-27 22:17 | 10.62979 | -70.11302 | 22916 ft | 384 kts | 96° |
| 2026-04-27 22:17 | 10.62800 | -70.08596 | 22916 ft | 384 kts | 96° |
| 2026-04-27 22:17 | 10.62623 | -70.05881 | 22917 ft | 384 kts | 96° |
| 2026-04-27 22:18 | 10.62449 | -70.03208 | 22918 ft | 384 kts | 96° |
| 2026-04-27 22:18 | 10.62269 | -70.00466 | 22921 ft | 384 kts | 95° |
| 2026-04-27 22:18 | 10.62091 | -69.97759 | 22920 ft | 383 kts | 96° |
| 2026-04-27 22:18 | 10.61918 | -69.95093 | 22917 ft | 383 kts | 96° |
| 2026-04-27 22:19 | 10.61738 | -69.92391 | 22923 ft | 383 kts | 96° |
| 2026-04-27 22:19 | 10.61554 | -69.89689 | 22918 ft | 383 kts | 96° |
| 2026-04-27 22:19 | 10.61369 | -69.86984 | 22922 ft | 383 kts | 96° |
| 2026-04-27 22:19 | 10.61187 | -69.84289 | 22920 ft | 384 kts | 96° |
| 2026-04-27 22:20 | 10.61006 | -69.81584 | 22924 ft | 384 kts | 95° |
| 2026-04-27 22:20 | 10.60822 | -69.78879 | 22924 ft | 384 kts | 95° |
| 2026-04-27 22:20 | 10.60639 | -69.76173 | 22925 ft | 384 kts | 96° |
| 2026-04-27 22:20 | 10.60460 | -69.73468 | 22928 ft | 384 kts | 95° |
| 2026-04-27 22:21 | 10.60280 | -69.70762 | 22933 ft | 384 kts | 96° |
| 2026-04-27 22:21 | 10.60100 | -69.68056 | 22931 ft | 384 kts | 96° |
| 2026-04-27 22:21 | 10.59918 | -69.65351 | 22930 ft | 384 kts | 96° |
| 2026-04-27 22:21 | 10.59735 | -69.62647 | 22932 ft | 383 kts | 96° |
| 2026-04-27 22:22 | 10.59553 | -69.59944 | 22935 ft | 383 kts | 96° |
| 2026-04-27 22:22 | 10.59368 | -69.57242 | 22934 ft | 383 kts | 95° |
| 2026-04-27 22:22 | 10.59183 | -69.54547 | 22935 ft | 383 kts | 95° |
| 2026-04-27 22:22 | 10.58998 | -69.51845 | 22938 ft | 383 kts | 96° |
| 2026-04-27 22:23 | 10.58814 | -69.49143 | 22939 ft | 383 kts | 96° |
| 2026-04-27 22:23 | 10.58618 | -69.46441 | 22934 ft | 383 kts | 96° |
| 2026-04-27 22:23 | 10.58399 | -69.43734 | 22942 ft | 383 kts | 96° |
| 2026-04-27 22:23 | 10.58170 | -69.41036 | 22941 ft | 383 kts | 96° |
| 2026-04-27 22:24 | 10.57939 | -69.38344 | 22940 ft | 383 kts | 96° |
| 2026-04-27 22:24 | 10.57711 | -69.35650 | 22945 ft | 383 kts | 96° |
| 2026-04-27 22:24 | 10.57486 | -69.32954 | 22941 ft | 383 kts | 96° |
| 2026-04-27 22:24 | 10.57263 | -69.30259 | 22941 ft | 383 kts | 96° |
| 2026-04-27 22:25 | 10.57038 | -69.27562 | 22941 ft | 383 kts | 96° |
| 2026-04-27 22:25 | 10.56810 | -69.24868 | 22943 ft | 383 kts | 96° |
| 2026-04-27 22:25 | 10.56583 | -69.22171 | 22941 ft | 383 kts | 96° |
| 2026-04-27 22:25 | 10.56359 | -69.19475 | 22942 ft | 383 kts | 96° |
| 2026-04-27 22:26 | 10.56137 | -69.16780 | 22940 ft | 383 kts | 96° |
| 2026-04-27 22:26 | 10.55917 | -69.14084 | 22939 ft | 383 kts | 96° |
| 2026-04-27 22:26 | 10.55698 | -69.11423 | 22939 ft | 383 kts | 96° |
| 2026-04-27 22:26 | 10.55474 | -69.08729 | 22938 ft | 383 kts | 96° |
| 2026-04-27 22:27 | 10.55248 | -69.06035 | 22943 ft | 383 kts | 96° |
| 2026-04-27 22:27 | 10.55094 | -69.04219 | 22944 ft | 383 kts | 96° |
| 2026-04-27 22:27 | 10.54864 | -69.01516 | 22942 ft | 383 kts | 96° |
| 2026-04-27 22:27 | 10.54636 | -68.98825 | 22942 ft | 383 kts | 96° |
| 2026-04-27 22:28 | 10.54335 | -68.95254 | 22939 ft | 383 kts | 96° |
| 2026-04-27 22:28 | 10.54193 | -68.93432 | 22940 ft | 383 kts | 96° |
| 2026-04-27 22:28 | 10.53950 | -68.89859 | 22943 ft | 383 kts | 95° |
| 2026-04-27 22:28 | 10.53835 | -68.88035 | 22940 ft | 383 kts | 95° |
| 2026-04-27 22:29 | 10.53669 | -68.85378 | 22940 ft | 382 kts | 95° |
| 2026-04-27 22:29 | 10.53493 | -68.82642 | 22941 ft | 382 kts | 95° |
| 2026-04-27 22:29 | 10.53316 | -68.79954 | 22937 ft | 382 kts | 95° |
| 2026-04-27 22:29 | 10.53138 | -68.77253 | 22937 ft | 382 kts | 95° |
| 2026-04-27 22:30 | 10.52959 | -68.74568 | 22935 ft | 382 kts | 95° |
| 2026-04-27 22:30 | 10.52780 | -68.71874 | 22937 ft | 382 kts | 95° |
| 2026-04-27 22:30 | 10.52600 | -68.69179 | 22940 ft | 382 kts | 95° |
| 2026-04-27 22:30 | 10.52421 | -68.66482 | 22943 ft | 382 kts | 95° |
| 2026-04-27 22:31 | 10.52243 | -68.63822 | 22940 ft | 382 kts | 95° |
| 2026-04-27 22:31 | 10.52059 | -68.61125 | 22944 ft | 383 kts | 95° |
| 2026-04-27 22:31 | 10.51874 | -68.58428 | 22944 ft | 383 kts | 95° |
| 2026-04-27 22:31 | 10.51690 | -68.55731 | 22943 ft | 382 kts | 95° |
| 2026-04-27 22:32 | 10.51506 | -68.53000 | 22941 ft | 382 kts | 95° |
| 2026-04-27 22:32 | 10.51325 | -68.50338 | 22944 ft | 382 kts | 95° |
| 2026-04-27 22:32 | 10.51142 | -68.47609 | 22947 ft | 382 kts | 95° |
| 2026-04-27 22:32 | 10.50961 | -68.44921 | 22945 ft | 382 kts | 95° |
| 2026-04-27 22:33 | 10.50782 | -68.42268 | 22941 ft | 382 kts | 95° |
| 2026-04-27 22:33 | 10.50601 | -68.39578 | 22943 ft | 382 kts | 95° |
| 2026-04-27 22:33 | 10.50418 | -68.36890 | 22943 ft | 382 kts | 95° |
| 2026-04-27 22:33 | 10.50231 | -68.34203 | 22946 ft | 382 kts | 95° |
| 2026-04-27 22:34 | 10.50043 | -68.31512 | 22945 ft | 382 kts | 95° |
| 2026-04-27 22:34 | 10.49859 | -68.28821 | 22941 ft | 382 kts | 95° |
| 2026-04-27 22:34 | 10.49678 | -68.26142 | 22897 ft | 380 kts | 95° |
| 2026-04-27 22:34 | 10.49500 | -68.23489 | 22639 ft | 371 kts | 95° |
| 2026-04-27 22:35 | 10.49324 | -68.20896 | 22388 ft | 365 kts | 95° |
| 2026-04-27 22:35 | 10.49147 | -68.18348 | 22136 ft | 362 kts | 95° |
| 2026-04-27 22:35 | 10.48968 | -68.15801 | 21888 ft | 361 kts | 95° |
| 2026-04-27 22:35 | 10.48792 | -68.13267 | 21643 ft | 359 kts | 95° |
| 2026-04-27 22:36 | 10.48616 | -68.10754 | 21332 ft | 354 kts | 95° |
| 2026-04-27 22:36 | 10.48521 | -68.08259 | 20901 ft | 353 kts | 88° |
| 2026-04-27 22:36 | 10.48872 | -68.05790 | 20462 ft | 354 kts | 78° |
| 2026-04-27 22:36 | 10.49451 | -68.03362 | 20024 ft | 353 kts | 78° |
| 2026-04-27 22:37 | 10.50029 | -68.00944 | 19590 ft | 352 kts | 77° |
| 2026-04-27 22:37 | 10.50607 | -67.98531 | 19157 ft | 352 kts | 77° |
| 2026-04-27 22:37 | 10.51187 | -67.96115 | 18727 ft | 351 kts | 77° |
| 2026-04-27 22:37 | 10.51764 | -67.93703 | 18299 ft | 351 kts | 78° |
| 2026-04-27 22:38 | 10.52336 | -67.91297 | 17824 ft | 351 kts | 78° |
| 2026-04-27 22:38 | 10.52904 | -67.88892 | 17403 ft | 348 kts | 78° |
| 2026-04-27 22:38 | 10.53466 | -67.86503 | 16985 ft | 347 kts | 78° |
| 2026-04-27 22:38 | 10.54025 | -67.84125 | 16570 ft | 345 kts | 78° |
| 2026-04-27 22:39 | 10.54580 | -67.81764 | 16165 ft | 343 kts | 77° |
| 2026-04-27 22:39 | 10.55135 | -67.79409 | 15756 ft | 342 kts | 77° |
| 2026-04-27 22:39 | 10.55689 | -67.77061 | 15353 ft | 341 kts | 77° |
| 2026-04-27 22:39 | 10.56242 | -67.74723 | 14947 ft | 340 kts | 77° |
| 2026-04-27 22:40 | 10.56794 | -67.72392 | 14545 ft | 339 kts | 77° |
| 2026-04-27 22:40 | 10.57347 | -67.70063 | 14137 ft | 338 kts | 77° |
| 2026-04-27 22:40 | 10.57894 | -67.67758 | 13816 ft | 334 kts | 77° |
| 2026-04-27 22:40 | 10.58214 | -67.65428 | 13369 ft | 332 kts | 89° |
| 2026-04-27 22:41 | 10.58283 | -67.63095 | 12959 ft | 330 kts | 89° |
| 2026-04-27 22:41 | 10.58358 | -67.60793 | 12465 ft | 330 kts | 89° |
| 2026-04-27 22:41 | 10.58437 | -67.58435 | 11972 ft | 330 kts | 89° |
| 2026-04-27 22:41 | 10.58518 | -67.56103 | 11494 ft | 330 kts | 89° |
| 2026-04-27 22:42 | 10.58601 | -67.53776 | 11020 ft | 329 kts | 88° |
| 2026-04-27 22:42 | 10.58685 | -67.51485 | 10557 ft | 328 kts | 88° |
| 2026-04-27 22:42 | 10.58770 | -67.49171 | 10105 ft | 327 kts | 89° |
| 2026-04-27 22:42 | 10.58851 | -67.46867 | 9627 ft | 326 kts | 89° |
| 2026-04-27 22:43 | 10.58926 | -67.44575 | 9122 ft | 324 kts | 89° |
| 2026-04-27 22:43 | 10.59001 | -67.42293 | 8628 ft | 322 kts | 89° |
| 2026-04-27 22:43 | 10.59078 | -67.40025 | 8139 ft | 321 kts | 89° |
| 2026-04-27 22:43 | 10.59155 | -67.37765 | 7661 ft | 319 kts | 88° |
| 2026-04-27 22:44 | 10.59233 | -67.35535 | 7405 ft | 310 kts | 89° |
| 2026-04-27 22:44 | 10.59305 | -67.33392 | 7283 ft | 297 kts | 89° |
| 2026-04-27 22:44 | 10.59374 | -67.31346 | 7165 ft | 284 kts | 89° |
| 2026-04-27 22:44 | 10.59440 | -67.29382 | 7045 ft | 272 kts | 89° |
| 2026-04-27 22:45 | 10.59503 | -67.27500 | 6920 ft | 260 kts | 89° |
| 2026-04-27 22:45 | 10.59564 | -67.25700 | 6809 ft | 249 kts | 89° |
| 2026-04-27 22:45 | 10.59623 | -67.23986 | 6690 ft | 238 kts | 89° |
| 2026-04-27 22:45 | 10.59678 | -67.22341 | 6574 ft | 227 kts | 89° |
| 2026-04-27 22:46 | 10.59731 | -67.20771 | 6455 ft | 217 kts | 89° |
| 2026-04-27 22:46 | 10.59778 | -67.19280 | 6323 ft | 204 kts | 89° |
| 2026-04-27 22:46 | 10.59814 | -67.17873 | 6035 ft | 197 kts | 89° |
| 2026-04-27 22:46 | 10.59848 | -67.16509 | 5831 ft | 190 kts | 89° |
| 2026-04-27 22:47 | 10.59881 | -67.15115 | 5371 ft | 202 kts | 89° |
| 2026-04-27 22:47 | 10.59916 | -67.13660 | 4849 ft | 209 kts | 89° |
| 2026-04-27 22:47 | 10.59955 | -67.12157 | 4298 ft | 215 kts | 89° |
| 2026-04-27 22:47 | 10.59998 | -67.10618 | 3739 ft | 220 kts | 89° |
| 2026-04-27 22:48 | 10.60039 | -67.09057 | 3174 ft | 220 kts | 88° |
| 2026-04-27 22:48 | 10.60079 | -67.07527 | 2615 ft | 214 kts | 88° |
| 2026-04-27 22:48 | 10.60117 | -67.06031 | 2074 ft | 210 kts | 88° |
| 2026-04-27 22:48 | 10.60147 | -67.04562 | 1542 ft | 205 kts | 89° |
| 2026-04-27 22:49 | 10.60168 | -67.03204 | 1405 ft | 178 kts | 89° |
| 2026-04-27 22:49 | 10.60183 | -67.02008 | 1407 ft | 173 kts | 89° |
| 2026-04-27 22:49 | 10.60207 | -67.00605 | 1425 ft | 213 kts | 89° |
| 2026-04-27 22:49 | 10.60233 | -66.99093 | 1405 ft | 215 kts | 89° |
| 2026-04-27 22:50 | 10.60428 | -66.97595 | 1406 ft | 215 kts | 67° |
| 2026-04-27 22:50 | 10.61387 | -66.96440 | 1553 ft | 223 kts | 30° |
| 2026-04-27 22:50 | 10.62832 | -66.95897 | 2420 ft | 221 kts | 12° |
| 2026-04-27 22:50 | 10.64358 | -66.95664 | 3234 ft | 222 kts | 11° |
| 2026-04-27 22:51 | 10.65908 | -66.95439 | 3823 ft | 229 kts | 10° |
| 2026-04-27 22:51 | 10.67482 | -66.95215 | 4109 ft | 228 kts | 9° |
| 2026-04-27 22:51 | 10.69051 | -66.94993 | 4353 ft | 228 kts | 9° |
| 2026-04-27 22:51 | 10.70621 | -66.94772 | 4597 ft | 228 kts | 9° |
| 2026-04-27 22:52 | 10.72197 | -66.94547 | 4840 ft | 230 kts | 10° |
| 2026-04-27 22:52 | 10.73791 | -66.94320 | 4975 ft | 232 kts | 10° |
| 2026-04-27 22:52 | 10.75367 | -66.94096 | 5002 ft | 232 kts | 10° |
| 2026-04-27 22:52 | 10.76961 | -66.93871 | 5009 ft | 232 kts | 10° |
| 2026-04-27 22:53 | 10.78582 | -66.93641 | 5011 ft | 231 kts | 11° |
| 2026-04-27 22:53 | 10.80151 | -66.93419 | 5009 ft | 231 kts | 11° |
| 2026-04-27 22:53 | 10.81744 | -66.93195 | 5008 ft | 231 kts | 11° |
| 2026-04-27 22:53 | 10.83340 | -66.92971 | 5009 ft | 232 kts | 10° |
| 2026-04-27 22:54 | 10.84944 | -66.92890 | 5009 ft | 233 kts | 354° |
| 2026-04-27 22:54 | 10.86489 | -66.93408 | 5008 ft | 237 kts | 331° |
| 2026-04-27 22:54 | 10.87738 | -66.94493 | 5005 ft | 238 kts | 308° |
| 2026-04-27 22:54 | 10.88490 | -66.95991 | 5005 ft | 239 kts | 284° |
| 2026-04-27 22:55 | 10.88639 | -66.97663 | 5008 ft | 239 kts | 266° |
| 2026-04-27 22:55 | 10.88575 | -66.99360 | 5003 ft | 239 kts | 267° |
| 2026-04-27 22:55 | 10.88516 | -67.01050 | 5003 ft | 239 kts | 267° |
| 2026-04-27 22:55 | 10.88458 | -67.02745 | 5005 ft | 240 kts | 267° |
| 2026-04-27 22:56 | 10.88402 | -67.04435 | 4999 ft | 240 kts | 267° |
| 2026-04-27 22:56 | 10.88334 | -67.06131 | 5005 ft | 239 kts | 263° |
| 2026-04-27 22:56 | 10.87932 | -67.07760 | 5004 ft | 237 kts | 244° |
| 2026-04-27 22:56 | 10.87102 | -67.09192 | 5005 ft | 235 kts | 233° |
| 2026-04-27 22:57 | 10.86180 | -67.10565 | 5007 ft | 235 kts | 233° |
| 2026-04-27 22:57 | 10.85260 | -67.11943 | 5007 ft | 236 kts | 234° |
| 2026-04-27 22:57 | 10.84345 | -67.13319 | 5008 ft | 235 kts | 234° |
| 2026-04-27 22:57 | 10.83430 | -67.14698 | 5007 ft | 235 kts | 234° |
| 2026-04-27 22:58 | 10.82514 | -67.16074 | 5009 ft | 234 kts | 234° |
| 2026-04-27 22:58 | 10.81598 | -67.17451 | 5010 ft | 235 kts | 234° |
| 2026-04-27 22:58 | 10.80680 | -67.18828 | 5011 ft | 236 kts | 234° |
| 2026-04-27 22:58 | 10.79657 | -67.20119 | 5014 ft | 233 kts | 218° |
| 2026-04-27 22:59 | 10.78288 | -67.20964 | 5010 ft | 229 kts | 198° |
| 2026-04-27 22:59 | 10.76743 | -67.21268 | 4875 ft | 225 kts | 178° |
| 2026-04-27 22:59 | 10.75184 | -67.21191 | 4569 ft | 224 kts | 175° |
| 2026-04-27 22:59 | 10.73631 | -67.21107 | 4249 ft | 224 kts | 175° |
| 2026-04-27 23:00 | 10.70541 | -67.20952 | 4020 ft | 224 kts | 176° |
| 2026-04-27 23:00 | 10.68982 | -67.20877 | 4027 ft | 224 kts | 175° |
| 2026-04-27 23:00 | 10.67434 | -67.20801 | 4023 ft | 221 kts | 175° |
| 2026-04-27 23:01 | 10.65951 | -67.20727 | 4022 ft | 206 kts | 175° |
| 2026-04-27 23:01 | 10.64539 | -67.20657 | 4026 ft | 202 kts | 175° |
| 2026-04-27 23:01 | 10.63138 | -67.20581 | 4033 ft | 201 kts | 171° |
| 2026-04-27 23:01 | 10.61821 | -67.20177 | 4031 ft | 198 kts | 149° |
| 2026-04-27 23:02 | 10.60750 | -67.19311 | 4034 ft | 197 kts | 128° |
| 2026-04-27 23:02 | 10.60046 | -67.18110 | 3800 ft | 202 kts | 108° |
| 2026-04-27 23:02 | 10.59827 | -67.16685 | 3455 ft | 209 kts | 89° |
| 2026-04-27 23:02 | 10.59875 | -67.15198 | 3129 ft | 212 kts | 88° |
| 2026-04-27 23:03 | 10.59917 | -67.13692 | 2807 ft | 214 kts | 88° |
| 2026-04-27 23:03 | 10.59958 | -67.12196 | 2498 ft | 208 kts | 88° |
| 2026-04-27 23:03 | 10.59994 | -67.10753 | 2210 ft | 199 kts | 88° |
| 2026-04-27 23:03 | 10.60027 | -67.09391 | 1916 ft | 187 kts | 88° |
| 2026-04-27 23:04 | 10.60057 | -67.08104 | 1644 ft | 176 kts | 88° |
| 2026-04-27 23:04 | 10.60088 | -67.06903 | 1392 ft | 162 kts | 88° |
| 2026-04-27 23:04 | 10.60116 | -67.05820 | 1246 ft | 147 kts | 88° |
| 2026-04-27 23:04 | 10.60136 | -67.04804 | 1138 ft | 142 kts | 89° |
| 2026-04-27 23:05 | 10.60153 | -67.03814 | 1075 ft | 139 kts | 89° |
| 2026-04-27 23:05 | 10.60139 | -67.02828 | 881 ft | 140 kts | 91° |
| 2026-04-27 23:05 | 10.60205 | -67.01831 | 464 ft | 143 kts | 86° |
| 2026-04-27 23:05 | 10.60224 | -67.00786 | 241 ft | 146 kts | 84° |
| 2026-04-27 23:06 | 10.60259 | -66.99880 | 216 ft | 99 kts | 89° |
| 2026-04-27 23:06 | 10.60274 | -66.99412 | 205 ft | 42 kts | 88° |
| 2026-04-27 23:06 | 10.60276 | -66.99237 | 200 ft | 6 kts | 91° |
| 2026-04-27 23:06 | 10.60278 | -66.99157 | 192 ft | 18 kts | 92° |
| 2026-04-27 23:07 | 10.60201 | -66.99109 | 195 ft | 12 kts | 174° |
| 2026-04-27 23:07 | 10.60107 | -66.99089 | 189 ft | 15 kts | 163° |
| 2026-04-27 23:07 | 10.60019 | -66.99131 | 202 ft | 16 kts | 257° |
| 2026-04-27 23:07 | 10.60000 | -66.99246 | 198 ft | 22 kts | 259° |
| 2026-04-27 23:08 | 10.59961 | -66.99399 | 209 ft | 21 kts | 255° |
| 2026-04-27 23:08 | 10.59930 | -66.99525 | 213 ft | 15 kts | 257° |
| 2026-04-27 23:08 | 10.59913 | -66.99599 | 217 ft | 8 kts | 258° |
| 2026-04-27 23:08 | 10.59962 | -66.99662 | 219 ft | 14 kts | 354° |
| 2026-04-27 23:09 | 10.60066 | -66.99665 | 214 ft | 16 kts | 358° |
| 2026-04-27 23:09 | 10.60138 | -66.99725 | 219 ft | 13 kts | 277° |
| 2026-04-27 23:09 | 10.60135 | -66.99827 | 216 ft | 14 kts | 266° |
| 2026-04-27 23:09 | 10.60127 | -66.99922 | 218 ft | 16 kts | 263° |
| 2026-04-27 23:10 | 10.60117 | -67.00025 | 220 ft | 13 kts | 270° |
| 2026-04-27 23:10 | 10.60116 | -67.00143 | 221 ft | 18 kts | 268° |
| 2026-04-27 23:10 | 10.60109 | -67.00261 | 223 ft | 16 kts | 256° |
| 2026-04-27 23:10 | 10.60022 | -67.00301 | 225 ft | 16 kts | 203° |
| 2026-04-27 23:11 | 10.60001 | -67.00394 | 226 ft | 14 kts | 269° |
| 2026-04-27 23:11 | 10.59996 | -67.00534 | 228 ft | 22 kts | 268° |
| 2026-04-27 23:11 | 10.59992 | -67.00674 | 231 ft | 18 kts | 268° |
| 2026-04-27 23:11 | 10.59957 | -67.00728 | 232 ft | 2 kts | 177° |
| 2026-04-27 23:12 | 10.59911 | -67.00730 | 232 ft | 8 kts | 178° |
| 2026-04-27 23:12 | 10.59865 | -67.00728 | 232 ft | 6 kts | 178° |
| 2026-04-27 23:12 | 10.59823 | -67.00727 | 232 ft | 2 kts | 179° |
| 2026-04-27 23:12 | 10.59819 | -67.00727 | 232 ft | 0 kts | 179° |